createdAt,value
2022-12-27T00:07:33.637Z,86.80
2022-12-27T00:17:36.357Z,86.61
2022-12-27T00:27:40.402Z,87.25
2022-12-27T00:37:43.072Z,87.58
2022-12-27T00:47:47.121Z,88.20
2022-12-27T00:57:49.770Z,88.03
2022-12-27T01:07:53.807Z,88.76
2022-12-27T01:17:56.681Z,89.06
2022-12-27T01:28:00.730Z,88.28
2022-12-27T01:38:03.476Z,88.67
2022-12-27T01:48:14.055Z,88.67
2022-12-27T01:58:22.991Z,88.83
2022-12-27T02:08:37.365Z,88.91
2022-12-27T02:18:40.142Z,89.88
2022-12-27T02:28:58.342Z,89.70
2022-12-27T02:39:03.745Z,90.31
2022-12-27T02:49:44.187Z,94.97
2022-12-27T03:00:20.968Z,95.59
2022-12-27T03:10:51.833Z,96.68
2022-12-27T03:21:13.855Z,97.32
2022-12-27T03:31:38.962Z,96.78
2022-12-27T03:42:04.430Z,96.33
2022-12-27T03:52:12.643Z,96.70
2022-12-27T04:02:15.890Z,96.73
2022-12-27T04:12:37.626Z,96.29
2022-12-27T04:22:58.008Z,96.58
2022-12-27T04:33:19.642Z,96.13
2022-12-27T04:43:40.114Z,96.29
2022-12-27T04:54:01.563Z,95.84
2022-12-27T05:04:04.289Z,95.84
2022-12-27T05:14:11.789Z,96.32
2022-12-27T05:24:31.997Z,95.69
2022-12-27T05:34:36.141Z,94.52
2022-12-27T05:44:38.961Z,94.42
2022-12-27T05:54:43.013Z,94.39
2022-12-27T06:04:46.109Z,94.77
2022-12-27T06:14:50.293Z,94.54
2022-12-27T06:24:53.265Z,93.98
2022-12-27T06:34:57.565Z,94.67
2022-12-27T06:45:00.372Z,94.70
2022-12-27T06:55:05.017Z,94.44
2022-12-27T07:05:08.581Z,94.84
2022-12-27T07:15:12.753Z,94.04
2022-12-27T07:25:15.580Z,93.21
2022-12-27T07:35:19.665Z,93.33
2022-12-27T07:45:22.425Z,93.88
2022-12-27T07:55:26.626Z,93.75
2022-12-27T08:05:30.205Z,93.29
2022-12-27T08:15:34.455Z,93.96
2022-12-27T08:25:37.155Z,94.22
2022-12-27T08:35:58.856Z,94.61
2022-12-27T08:46:03.447Z,94.69
2022-12-27T08:56:08.060Z,94.58
2022-12-27T09:06:25.643Z,94.27
2022-12-27T09:16:31.393Z,94.24
2022-12-27T09:26:34.659Z,93.90
2022-12-27T09:36:40.002Z,92.75
2022-12-27T09:46:47.344Z,92.30
2022-12-27T09:57:18.954Z,92.15
2022-12-27T10:07:22.811Z,91.17
2022-12-27T10:17:42.241Z,88.73
2022-12-27T10:27:45.002Z,88.96
2022-12-27T10:37:50.381Z,88.85
2022-12-27T10:47:54.006Z,86.43
2022-12-27T10:57:58.065Z,86.93
2022-12-27T11:08:01.311Z,84.87
2022-12-27T11:18:11.894Z,84.32
2022-12-27T11:28:21.702Z,85.36
2022-12-27T11:38:28.584Z,82.21
2022-12-27T11:48:34.524Z,80.53
2022-12-27T11:59:07.679Z,82.85
2022-12-27T12:09:27.251Z,83.56
2022-12-27T12:19:42.524Z,83.18
2022-12-27T12:30:12.452Z,80.97
2022-12-27T12:40:39.566Z,75.79
2022-12-27T12:51:10.699Z,70.52
2022-12-27T13:01:27.346Z,78.57
2022-12-27T13:11:47.378Z,77.98
2022-12-27T13:22:03.107Z,81.23
2022-12-27T13:32:19.407Z,83.45
2022-12-27T13:42:48.700Z,84.83
2022-12-27T13:53:07.974Z,84.84
2022-12-27T14:03:41.335Z,85.25
2022-12-27T14:13:46.917Z,87.00
2022-12-27T14:24:00.613Z,87.38
2022-12-27T14:34:57.434Z,87.99
2022-12-27T14:45:44.952Z,88.87
2022-12-27T14:55:58.758Z,88.55
2022-12-27T15:06:10.008Z,89.36
2022-12-27T15:16:20.102Z,90.17
2022-12-27T15:26:30.895Z,89.69
2022-12-27T15:36:43.034Z,91.01
2022-12-27T15:47:09.030Z,91.11
2022-12-27T15:57:32.176Z,92.12
2022-12-27T16:07:42.149Z,92.42
2022-12-27T16:17:55.363Z,92.30
2022-12-27T16:28:02.156Z,93.06
2022-12-27T16:38:07.056Z,93.11
2022-12-27T16:48:18.149Z,93.68
2022-12-27T16:58:34.708Z,94.21
2022-12-27T17:08:37.487Z,93.17
2022-12-27T17:18:50.205Z,92.53
2022-12-27T17:29:01.619Z,93.30
2022-12-27T17:39:25.424Z,92.95
2022-12-27T17:49:30.483Z,93.43
2022-12-27T17:59:36.018Z,92.11
2022-12-27T18:09:44.601Z,93.16
2022-12-27T18:19:48.649Z,93.89
2022-12-27T18:29:51.466Z,94.45
2022-12-27T18:40:00.133Z,94.52
2022-12-27T18:50:06.476Z,94.50
2022-12-27T19:00:21.656Z,93.84
2022-12-27T19:10:27.137Z,93.91
2022-12-27T19:20:34.686Z,94.18
2022-12-27T19:30:47.759Z,94.01
2022-12-27T19:41:01.260Z,93.01
2022-12-27T19:51:07.017Z,93.44
2022-12-27T20:01:11.485Z,92.94
2022-12-27T20:11:15.916Z,92.55
2022-12-27T20:21:21.894Z,92.46
2022-12-27T20:31:24.981Z,91.53
2022-12-27T20:41:29.232Z,91.21
2022-12-27T20:51:33.556Z,90.95
2022-12-27T21:01:38.006Z,90.37
2022-12-27T21:11:41.622Z,89.33
2022-12-27T21:21:46.226Z,88.72
2022-12-27T21:31:50.550Z,87.39
2022-12-27T21:41:54.751Z,87.38
2022-12-27T21:51:57.909Z,87.98
2022-12-27T22:13:24.993Z,86.54
2022-12-27T22:23:27.982Z,86.20
2022-12-27T22:33:32.145Z,84.64
2022-12-27T22:43:35.647Z,86.16
2022-12-27T22:53:41.256Z,86.05
2022-12-27T23:03:44.235Z,84.75
2022-12-27T23:13:49.371Z,83.22
2022-12-27T23:23:52.862Z,83.19
2022-12-27T23:33:57.094Z,82.50
2022-12-27T23:44:01.458Z,84.17
2022-12-27T23:54:05.605Z,84.03
